sensor_id;sensor_type;location;lat;lon;timestamp;temperature;humidity
42885;DHT22;28534;48.100;11.584;2024-02-23T00:00:43;22.00;58.60
42885;DHT22;28534;48.100;11.584;2024-02-23T00:01:43;22.00;58.60
42885;DHT22;28534;48.100;11.584;2024-02-23T00:02:44;21.90;58.60
42885;DHT22;28534;48.100;11.584;2024-02-23T00:03:45;22.10;58.60
42885;DHT22;28534;48.100;11.584;2024-02-23T00:04:46;22.00;58.60
42885;DHT22;28534;48.100;11.584;2024-02-23T00:05:47;22.00;58.50
42885;DHT22;28534;48.100;11.584;2024-02-23T00:06:48;22.00;58.50
42885;DHT22;28534;48.100;11.584;2024-02-23T00:07:50;22.00;58.50
42885;DHT22;28534;48.100;11.584;2024-02-23T00:08:50;22.00;58.50
42885;DHT22;28534;48.100;11.584;2024-02-23T00:09:54;22.00;58.50
42885;DHT22;28534;48.100;11.584;2024-02-23T00:10:54;21.90;58.40
42885;DHT22;28534;48.100;11.584;2024-02-23T00:11:56;22.00;58.50
42885;DHT22;28534;48.100;11.584;2024-02-23T00:12:57;22.00;58.50
42885;DHT22;28534;48.100;11.584;2024-02-23T00:13:57;22.00;58.60
42885;DHT22;28534;48.100;11.584;2024-02-23T00:15:00;21.90;58.40
42885;DHT22;28534;48.100;11.584;2024-02-23T00:16:01;22.00;58.40
42885;DHT22;28534;48.100;11.584;2024-02-23T00:17:03;22.00;58.40
42885;DHT22;28534;48.100;11.584;2024-02-23T00:18:03;22.10;58.50
42885;DHT22;28534;48.100;11.584;2024-02-23T00:19:07;22.00;58.50
42885;DHT22;28534;48.100;11.584;2024-02-23T00:20:08;22.00;58.50
42885;DHT22;28534;48.100;11.584;2024-02-23T00:21:11;22.00;58.50
42885;DHT22;28534;48.100;11.584;2024-02-23T00:22:11;22.00;58.40
42885;DHT22;28534;48.100;11.584;2024-02-23T00:23:12;22.10;58.30
42885;DHT22;28534;48.100;11.584;2024-02-23T00:24:13;22.00;58.30
42885;DHT22;28534;48.100;11.584;2024-02-23T00:25:16;22.00;58.30
42885;DHT22;28534;48.100;11.584;2024-02-23T00:26:18;22.00;58.40
42885;DHT22;28534;48.100;11.584;2024-02-23T00:27:19;22.00;58.50
42885;DHT22;28534;48.100;11.584;2024-02-23T00:28:20;22.00;58.50
42885;DHT22;28534;48.100;11.584;2024-02-23T00:29:21;22.00;58.50
42885;DHT22;28534;48.100;11.584;2024-02-23T00:30:24;22.10;58.50
42885;DHT22;28534;48.100;11.584;2024-02-23T00:31:25;22.00;58.40
42885;DHT22;28534;48.100;11.584;2024-02-23T00:32:26;22.00;58.40
42885;DHT22;28534;48.100;11.584;2024-02-23T00:33:27;22.00;58.30
42885;DHT22;28534;48.100;11.584;2024-02-23T00:34:29;22.00;58.30
42885;DHT22;28534;48.100;11.584;2024-02-23T00:35:31;22.00;58.30
42885;DHT22;28534;48.100;11.584;2024-02-23T00:36:32;22.00;58.30
42885;DHT22;28534;48.100;11.584;2024-02-23T00:37:33;22.00;58.30
42885;DHT22;28534;48.100;11.584;2024-02-23T00:38:35;22.10;58.30
42885;DHT22;28534;48.100;11.584;2024-02-23T00:39:36;22.00;58.30
42885;DHT22;28534;48.100;11.584;2024-02-23T00:40:37;22.10;58.30
42885;DHT22;28534;48.100;11.584;2024-02-23T00:41:39;22.10;58.30
42885;DHT22;28534;48.100;11.584;2024-02-23T00:42:40;22.10;58.30
42885;DHT22;28534;48.100;11.584;2024-02-23T00:43:41;22.00;58.30
42885;DHT22;28534;48.100;11.584;2024-02-23T00:44:42;22.00;58.30
42885;DHT22;28534;48.100;11.584;2024-02-23T00:45:45;22.10;58.30
42885;DHT22;28534;48.100;11.584;2024-02-23T00:46:45;22.00;58.30
42885;DHT22;28534;48.100;11.584;2024-02-23T00:47:47;22.10;58.30
42885;DHT22;28534;48.100;11.584;2024-02-23T00:48:48;22.00;58.30
42885;DHT22;28534;48.100;11.584;2024-02-23T00:49:49;22.00;58.30
42885;DHT22;28534;48.100;11.584;2024-02-23T00:50:50;22.00;58.30
42885;DHT22;28534;48.100;11.584;2024-02-23T00:51:51;22.10;58.30
42885;DHT22;28534;48.100;11.584;2024-02-23T00:52:52;22.10;58.30
42885;DHT22;28534;48.100;11.584;2024-02-23T00:53:54;22.00;58.30
42885;DHT22;28534;48.100;11.584;2024-02-23T00:54:54;22.00;58.30
42885;DHT22;28534;48.100;11.584;2024-02-23T00:55:56;22.00;58.30
42885;DHT22;28534;48.100;11.584;2024-02-23T00:56:56;22.00;58.30
42885;DHT22;28534;48.100;11.584;2024-02-23T00:57:57;22.00;58.30
42885;DHT22;28534;48.100;11.584;2024-02-23T00:58:59;22.00;58.30
42885;DHT22;28534;48.100;11.584;2024-02-23T01:00:00;22.10;58.40
42885;DHT22;28534;48.100;11.584;2024-02-23T01:01:04;22.00;58.40
42885;DHT22;28534;48.100;11.584;2024-02-23T01:02:05;22.00;58.40
42885;DHT22;28534;48.100;11.584;2024-02-23T01:03:07;22.10;58.60
42885;DHT22;28534;48.100;11.584;2024-02-23T01:04:07;22.00;58.50
42885;DHT22;28534;48.100;11.584;2024-02-23T01:05:09;21.90;58.60
42885;DHT22;28534;48.100;11.584;2024-02-23T01:06:10;21.90;58.50
42885;DHT22;28534;48.100;11.584;2024-02-23T01:07:12;21.90;58.60
42885;DHT22;28534;48.100;11.584;2024-02-23T01:08:13;22.00;58.60
42885;DHT22;28534;48.100;11.584;2024-02-23T01:09:15;21.90;58.70
42885;DHT22;28534;48.100;11.584;2024-02-23T01:10:17;22.00;58.80
42885;DHT22;28534;48.100;11.584;2024-02-23T01:11:18;21.90;58.60
42885;DHT22;28534;48.100;11.584;2024-02-23T01:12:19;21.90;58.70
42885;DHT22;28534;48.100;11.584;2024-02-23T01:13:21;21.90;58.90
42885;DHT22;28534;48.100;11.584;2024-02-23T01:14:21;22.00;58.70
42885;DHT22;28534;48.100;11.584;2024-02-23T01:15:23;21.90;58.70
42885;DHT22;28534;48.100;11.584;2024-02-23T01:16:25;21.90;58.70
42885;DHT22;28534;48.100;11.584;2024-02-23T01:17:27;21.90;58.60
42885;DHT22;28534;48.100;11.584;2024-02-23T01:18:28;22.00;58.70
42885;DHT22;28534;48.100;11.584;2024-02-23T01:19:29;21.90;58.70
42885;DHT22;28534;48.100;11.584;2024-02-23T01:20:30;21.90;58.60
42885;DHT22;28534;48.100;11.584;2024-02-23T01:21:31;22.00;58.70
42885;DHT22;28534;48.100;11.584;2024-02-23T01:22:32;22.00;59.30
42885;DHT22;28534;48.100;11.584;2024-02-23T01:23:34;22.10;58.60
42885;DHT22;28534;48.100;11.584;2024-02-23T01:24:34;22.00;58.60
42885;DHT22;28534;48.100;11.584;2024-02-23T01:25:36;22.00;58.60
42885;DHT22;28534;48.100;11.584;2024-02-23T01:26:37;22.00;58.60
42885;DHT22;28534;48.100;11.584;2024-02-23T01:27:38;22.00;58.60
42885;DHT22;28534;48.100;11.584;2024-02-23T01:28:40;21.90;58.60
42885;DHT22;28534;48.100;11.584;2024-02-23T01:29:41;22.10;58.70
42885;DHT22;28534;48.100;11.584;2024-02-23T01:30:41;22.00;58.60
42885;DHT22;28534;48.100;11.584;2024-02-23T01:31:44;21.90;58.60
42885;DHT22;28534;48.100;11.584;2024-02-23T01:32:45;22.00;58.70
42885;DHT22;28534;48.100;11.584;2024-02-23T01:33:46;21.90;58.70
42885;DHT22;28534;48.100;11.584;2024-02-23T01:34:47;22.00;58.70
42885;DHT22;28534;48.100;11.584;2024-02-23T01:35:49;21.90;58.70
42885;DHT22;28534;48.100;11.584;2024-02-23T01:36:50;21.90;58.60
42885;DHT22;28534;48.100;11.584;2024-02-23T01:37:52;22.00;58.70
42885;DHT22;28534;48.100;11.584;2024-02-23T01:38:53;21.90;58.70
42885;DHT22;28534;48.100;11.584;2024-02-23T01:39:55;21.90;58.70
42885;DHT22;28534;48.100;11.584;2024-02-23T01:40:55;21.90;58.70
42885;DHT22;28534;48.100;11.584;2024-02-23T01:41:57;21.90;58.60
42885;DHT22;28534;48.100;11.584;2024-02-23T01:43:02;21.90;58.60
42885;DHT22;28534;48.100;11.584;2024-02-23T01:44:04;21.90;58.60
42885;DHT22;28534;48.100;11.584;2024-02-23T01:45:05;21.90;58.70
42885;DHT22;28534;48.100;11.584;2024-02-23T01:46:07;21.90;58.60
42885;DHT22;28534;48.100;11.584;2024-02-23T01:47:10;21.90;58.70
42885;DHT22;28534;48.100;11.584;2024-02-23T01:48:12;21.90;58.70
42885;DHT22;28534;48.100;11.584;2024-02-23T01:49:12;21.90;58.70
42885;DHT22;28534;48.100;11.584;2024-02-23T01:50:14;21.90;58.70
42885;DHT22;28534;48.100;11.584;2024-02-23T01:51:15;21.90;58.70
42885;DHT22;28534;48.100;11.584;2024-02-23T01:52:16;21.90;58.80
42885;DHT22;28534;48.100;11.584;2024-02-23T01:53:18;21.90;58.80
42885;DHT22;28534;48.100;11.584;2024-02-23T01:54:19;21.80;58.80
42885;DHT22;28534;48.100;11.584;2024-02-23T01:55:21;21.90;58.70
42885;DHT22;28534;48.100;11.584;2024-02-23T01:56:22;21.90;58.70
42885;DHT22;28534;48.100;11.584;2024-02-23T01:57:24;21.90;58.70
42885;DHT22;28534;48.100;11.584;2024-02-23T01:58:24;21.90;58.70
42885;DHT22;28534;48.100;11.584;2024-02-23T01:59:25;21.90;58.70
42885;DHT22;28534;48.100;11.584;2024-02-23T02:00:27;21.80;58.70
42885;DHT22;28534;48.100;11.584;2024-02-23T02:01:28;21.80;58.80
42885;DHT22;28534;48.100;11.584;2024-02-23T02:02:31;21.80;58.70
42885;DHT22;28534;48.100;11.584;2024-02-23T02:03:32;21.80;58.70
42885;DHT22;28534;48.100;11.584;2024-02-23T02:04:34;21.90;58.70
42885;DHT22;28534;48.100;11.584;2024-02-23T02:05:35;21.90;58.70
42885;DHT22;28534;48.100;11.584;2024-02-23T02:06:36;21.90;58.70
42885;DHT22;28534;48.100;11.584;2024-02-23T02:07:37;21.90;58.70
42885;DHT22;28534;48.100;11.584;2024-02-23T02:08:38;21.90;58.80
42885;DHT22;28534;48.100;11.584;2024-02-23T02:09:40;21.80;58.70
42885;DHT22;28534;48.100;11.584;2024-02-23T02:10:41;21.80;58.70
42885;DHT22;28534;48.100;11.584;2024-02-23T02:11:46;21.90;58.80
42885;DHT22;28534;48.100;11.584;2024-02-23T02:12:47;21.80;58.80
42885;DHT22;28534;48.100;11.584;2024-02-23T02:13:49;21.80;58.90
42885;DHT22;28534;48.100;11.584;2024-02-23T02:14:49;21.80;58.80
42885;DHT22;28534;48.100;11.584;2024-02-23T02:15:50;22.00;58.90
42885;DHT22;28534;48.100;11.584;2024-02-23T02:16:53;21.90;58.70
42885;DHT22;28534;48.100;11.584;2024-02-23T02:17:55;21.90;58.70
42885;DHT22;28534;48.100;11.584;2024-02-23T02:18:57;21.80;58.70
42885;DHT22;28534;48.100;11.584;2024-02-23T02:19:58;22.00;58.70
42885;DHT22;28534;48.100;11.584;2024-02-23T02:21:00;21.90;58.60
42885;DHT22;28534;48.100;11.584;2024-02-23T02:22:01;22.00;58.60
42885;DHT22;28534;48.100;11.584;2024-02-23T02:23:02;22.00;58.60
42885;DHT22;28534;48.100;11.584;2024-02-23T02:24:03;21.90;58.50
42885;DHT22;28534;48.100;11.584;2024-02-23T02:25:04;21.90;58.70
42885;DHT22;28534;48.100;11.584;2024-02-23T02:26:06;21.90;58.60
42885;DHT22;28534;48.100;11.584;2024-02-23T02:27:07;21.80;58.50
42885;DHT22;28534;48.100;11.584;2024-02-23T02:28:08;22.00;58.60
42885;DHT22;28534;48.100;11.584;2024-02-23T02:29:09;21.90;58.60
42885;DHT22;28534;48.100;11.584;2024-02-23T02:30:11;21.90;58.50
42885;DHT22;28534;48.100;11.584;2024-02-23T02:31:12;21.90;58.50
42885;DHT22;28534;48.100;11.584;2024-02-23T02:32:13;21.90;58.50
42885;DHT22;28534;48.100;11.584;2024-02-23T02:33:15;21.90;58.60
42885;DHT22;28534;48.100;11.584;2024-02-23T02:34:17;21.80;58.60
42885;DHT22;28534;48.100;11.584;2024-02-23T02:35:17;21.90;58.60
42885;DHT22;28534;48.100;11.584;2024-02-23T02:36:18;21.90;58.70
42885;DHT22;28534;48.100;11.584;2024-02-23T02:37:19;21.80;58.60
42885;DHT22;28534;48.100;11.584;2024-02-23T02:38:20;21.90;58.70
42885;DHT22;28534;48.100;11.584;2024-02-23T02:39:21;21.80;58.70
42885;DHT22;28534;48.100;11.584;2024-02-23T02:40:22;21.80;58.70
42885;DHT22;28534;48.100;11.584;2024-02-23T02:41:23;21.80;58.70
42885;DHT22;28534;48.100;11.584;2024-02-23T02:42:26;21.80;58.70
42885;DHT22;28534;48.100;11.584;2024-02-23T02:43:29;21.80;58.70
42885;DHT22;28534;48.100;11.584;2024-02-23T02:44:31;22.00;58.70
42885;DHT22;28534;48.100;11.584;2024-02-23T02:45:31;21.90;58.60
42885;DHT22;28534;48.100;11.584;2024-02-23T02:46:33;21.90;58.60
42885;DHT22;28534;48.100;11.584;2024-02-23T02:47:33;21.90;58.60
42885;DHT22;28534;48.100;11.584;2024-02-23T02:48:37;21.80;58.60
42885;DHT22;28534;48.100;11.584;2024-02-23T02:49:39;21.90;58.60
42885;DHT22;28534;48.100;11.584;2024-02-23T02:50:40;21.80;58.70
42885;DHT22;28534;48.100;11.584;2024-02-23T02:51:41;21.80;58.70
42885;DHT22;28534;48.100;11.584;2024-02-23T02:52:43;21.80;58.70
42885;DHT22;28534;48.100;11.584;2024-02-23T02:53:43;21.80;58.70
42885;DHT22;28534;48.100;11.584;2024-02-23T02:54:45;22.00;58.60
42885;DHT22;28534;48.100;11.584;2024-02-23T02:55:45;21.90;58.50
42885;DHT22;28534;48.100;11.584;2024-02-23T02:56:47;21.90;58.50
42885;DHT22;28534;48.100;11.584;2024-02-23T02:57:48;21.90;58.50
42885;DHT22;28534;48.100;11.584;2024-02-23T02:58:49;21.90;58.50
42885;DHT22;28534;48.100;11.584;2024-02-23T02:59:50;21.90;58.50
42885;DHT22;28534;48.100;11.584;2024-02-23T03:00:51;21.90;58.60
42885;DHT22;28534;48.100;11.584;2024-02-23T03:01:52;21.90;58.60
42885;DHT22;28534;48.100;11.584;2024-02-23T03:02:53;21.90;58.70
42885;DHT22;28534;48.100;11.584;2024-02-23T03:03:56;21.90;58.70
42885;DHT22;28534;48.100;11.584;2024-02-23T03:04:56;21.90;58.70
42885;DHT22;28534;48.100;11.584;2024-02-23T03:05:58;21.90;58.70
42885;DHT22;28534;48.100;11.584;2024-02-23T03:06:59;21.90;58.60
42885;DHT22;28534;48.100;11.584;2024-02-23T03:08:00;21.90;58.60
42885;DHT22;28534;48.100;11.584;2024-02-23T03:09:01;21.80;58.60
42885;DHT22;28534;48.100;11.584;2024-02-23T03:10:02;21.90;58.70
42885;DHT22;28534;48.100;11.584;2024-02-23T03:11:04;21.80;58.70
42885;DHT22;28534;48.100;11.584;2024-02-23T03:12:05;21.70;58.60
42885;DHT22;28534;48.100;11.584;2024-02-23T03:13:05;21.80;58.70
42885;DHT22;28534;48.100;11.584;2024-02-23T03:14:07;21.80;58.80
42885;DHT22;28534;48.100;11.584;2024-02-23T03:15:08;21.90;58.80
42885;DHT22;28534;48.100;11.584;2024-02-23T03:16:14;21.80;58.80
42885;DHT22;28534;48.100;11.584;2024-02-23T03:17:14;21.80;58.70
42885;DHT22;28534;48.100;11.584;2024-02-23T03:18:16;21.90;58.70
42885;DHT22;28534;48.100;11.584;2024-02-23T03:19:18;21.80;58.70
42885;DHT22;28534;48.100;11.584;2024-02-23T03:20:22;21.80;58.60
42885;DHT22;28534;48.100;11.584;2024-02-23T03:21:23;21.90;58.70
42885;DHT22;28534;48.100;11.584;2024-02-23T03:22:24;21.90;58.60
42885;DHT22;28534;48.100;11.584;2024-02-23T03:23:25;21.90;58.60
42885;DHT22;28534;48.100;11.584;2024-02-23T03:24:27;21.90;58.50
42885;DHT22;28534;48.100;11.584;2024-02-23T03:25:27;22.00;58.60
42885;DHT22;28534;48.100;11.584;2024-02-23T03:26:29;21.80;58.50
42885;DHT22;28534;48.100;11.584;2024-02-23T03:27:29;21.90;58.60
42885;DHT22;28534;48.100;11.584;2024-02-23T03:28:31;21.90;58.40
42885;DHT22;28534;48.100;11.584;2024-02-23T03:29:32;21.90;58.40
42885;DHT22;28534;48.100;11.584;2024-02-23T03:30:34;21.90;58.60
42885;DHT22;28534;48.100;11.584;2024-02-23T03:31:34;21.90;58.60
42885;DHT22;28534;48.100;11.584;2024-02-23T03:32:36;21.80;58.60
42885;DHT22;28534;48.100;11.584;2024-02-23T03:33:37;21.90;58.60
42885;DHT22;28534;48.100;11.584;2024-02-23T03:34:40;21.90;58.50
42885;DHT22;28534;48.100;11.584;2024-02-23T03:35:41;22.00;58.70
42885;DHT22;28534;48.100;11.584;2024-02-23T03:36:42;21.90;58.60
42885;DHT22;28534;48.100;11.584;2024-02-23T03:37:43;21.90;58.60
42885;DHT22;28534;48.100;11.584;2024-02-23T03:38:44;21.80;58.40
42885;DHT22;28534;48.100;11.584;2024-02-23T03:39:45;21.90;58.50
42885;DHT22;28534;48.100;11.584;2024-02-23T03:40:48;21.90;58.50
42885;DHT22;28534;48.100;11.584;2024-02-23T03:41:49;21.90;58.60
42885;DHT22;28534;48.100;11.584;2024-02-23T03:42:51;21.90;58.70
42885;DHT22;28534;48.100;11.584;2024-02-23T03:43:52;21.80;58.70
42885;DHT22;28534;48.100;11.584;2024-02-23T03:44:53;21.90;58.70
42885;DHT22;28534;48.100;11.584;2024-02-23T03:45:54;21.80;58.70
42885;DHT22;28534;48.100;11.584;2024-02-23T03:46:56;21.80;58.70
42885;DHT22;28534;48.100;11.584;2024-02-23T03:47:57;21.80;58.50
42885;DHT22;28534;48.100;11.584;2024-02-23T03:48:58;21.90;58.40
42885;DHT22;28534;48.100;11.584;2024-02-23T03:50:00;21.90;58.30
42885;DHT22;28534;48.100;11.584;2024-02-23T03:51:03;21.90;58.80
42885;DHT22;28534;48.100;11.584;2024-02-23T03:52:04;22.00;58.20
42885;DHT22;28534;48.100;11.584;2024-02-23T03:53:05;22.00;58.10
42885;DHT22;28534;48.100;11.584;2024-02-23T03:54:06;22.00;58.00
42885;DHT22;28534;48.100;11.584;2024-02-23T03:55:08;22.10;58.00
42885;DHT22;28534;48.100;11.584;2024-02-23T03:56:09;22.00;57.90
42885;DHT22;28534;48.100;11.584;2024-02-23T03:57:10;22.00;58.00
42885;DHT22;28534;48.100;11.584;2024-02-23T03:58:11;22.10;58.00
42885;DHT22;28534;48.100;11.584;2024-02-23T03:59:12;22.10;58.00
42885;DHT22;28534;48.100;11.584;2024-02-23T04:00:13;22.10;58.00
42885;DHT22;28534;48.100;11.584;2024-02-23T04:01:15;22.10;58.00
42885;DHT22;28534;48.100;11.584;2024-02-23T04:02:16;22.00;58.00
42885;DHT22;28534;48.100;11.584;2024-02-23T04:03:17;22.10;58.00
42885;DHT22;28534;48.100;11.584;2024-02-23T04:04:18;22.00;58.00
42885;DHT22;28534;48.100;11.584;2024-02-23T04:05:21;22.10;58.00
42885;DHT22;28534;48.100;11.584;2024-02-23T04:06:21;22.00;58.00
42885;DHT22;28534;48.100;11.584;2024-02-23T04:07:22;22.00;58.00
42885;DHT22;28534;48.100;11.584;2024-02-23T04:08:24;22.20;58.10
42885;DHT22;28534;48.100;11.584;2024-02-23T04:09:24;22.00;58.00
42885;DHT22;28534;48.100;11.584;2024-02-23T04:10:26;22.00;58.00
42885;DHT22;28534;48.100;11.584;2024-02-23T04:11:26;22.00;58.00
42885;DHT22;28534;48.100;11.584;2024-02-23T04:12:28;22.00;58.20
42885;DHT22;28534;48.100;11.584;2024-02-23T04:13:29;22.00;58.20
42885;DHT22;28534;48.100;11.584;2024-02-23T04:14:30;22.00;58.20
42885;DHT22;28534;48.100;11.584;2024-02-23T04:15:31;22.10;58.20
42885;DHT22;28534;48.100;11.584;2024-02-23T04:16:32;22.80;58.50
42885;DHT22;28534;48.100;11.584;2024-02-23T04:17:33;22.00;58.20
42885;DHT22;28534;48.100;11.584;2024-02-23T04:18:35;22.00;58.00
42885;DHT22;28534;48.100;11.584;2024-02-23T04:19:35;22.10;58.00
42885;DHT22;28534;48.100;11.584;2024-02-23T04:20:38;22.10;57.90
42885;DHT22;28534;48.100;11.584;2024-02-23T04:21:39;22.10;58.00
42885;DHT22;28534;48.100;11.584;2024-02-23T04:22:40;22.10;58.10
42885;DHT22;28534;48.100;11.584;2024-02-23T04:23:41;22.10;58.10
42885;DHT22;28534;48.100;11.584;2024-02-23T04:24:43;22.10;58.10
42885;DHT22;28534;48.100;11.584;2024-02-23T04:25:44;22.10;58.10
42885;DHT22;28534;48.100;11.584;2024-02-23T04:26:45;22.10;58.00
42885;DHT22;28534;48.100;11.584;2024-02-23T04:27:47;22.20;58.00
42885;DHT22;28534;48.100;11.584;2024-02-23T04:28:47;22.20;57.90
42885;DHT22;28534;48.100;11.584;2024-02-23T04:29:49;22.20;57.80
42885;DHT22;28534;48.100;11.584;2024-02-23T04:30:49;22.20;57.80
42885;DHT22;28534;48.100;11.584;2024-02-23T04:31:51;22.20;57.70
42885;DHT22;28534;48.100;11.584;2024-02-23T04:32:51;22.30;57.70
42885;DHT22;28534;48.100;11.584;2024-02-23T04:33:53;22.20;57.70
42885;DHT22;28534;48.100;11.584;2024-02-23T04:34:54;22.20;57.70
42885;DHT22;28534;48.100;11.584;2024-02-23T04:35:57;22.30;57.60
42885;DHT22;28534;48.100;11.584;2024-02-23T04:36:57;22.30;57.70
42885;DHT22;28534;48.100;11.584;2024-02-23T04:37:59;22.30;57.60
42885;DHT22;28534;48.100;11.584;2024-02-23T04:38:59;22.30;57.60
42885;DHT22;28534;48.100;11.584;2024-02-23T04:40:01;22.30;57.60
42885;DHT22;28534;48.100;11.584;2024-02-23T04:41:02;22.30;57.50
42885;DHT22;28534;48.100;11.584;2024-02-23T04:42:03;22.40;57.60
42885;DHT22;28534;48.100;11.584;2024-02-23T04:43:05;22.40;57.50
42885;DHT22;28534;48.100;11.584;2024-02-23T04:44:06;22.30;57.40
42885;DHT22;28534;48.100;11.584;2024-02-23T04:45:07;22.40;57.40
42885;DHT22;28534;48.100;11.584;2024-02-23T04:46:08;22.40;57.40
42885;DHT22;28534;48.100;11.584;2024-02-23T04:47:10;22.40;57.30
42885;DHT22;28534;48.100;11.584;2024-02-23T04:48:10;22.40;57.20
42885;DHT22;28534;48.100;11.584;2024-02-23T04:49:11;22.50;57.20
42885;DHT22;28534;48.100;11.584;2024-02-23T04:50:13;22.50;57.20
42885;DHT22;28534;48.100;11.584;2024-02-23T04:51:15;22.50;57.10
42885;DHT22;28534;48.100;11.584;2024-02-23T04:52:17;22.50;57.10
42885;DHT22;28534;48.100;11.584;2024-02-23T04:53:17;22.50;56.90
42885;DHT22;28534;48.100;11.584;2024-02-23T04:54:19;22.60;57.00
42885;DHT22;28534;48.100;11.584;2024-02-23T04:55:20;22.60;56.90
42885;DHT22;28534;48.100;11.584;2024-02-23T04:56:22;22.70;56.90
42885;DHT22;28534;48.100;11.584;2024-02-23T04:57:22;22.70;56.80
42885;DHT22;28534;48.100;11.584;2024-02-23T04:58:24;22.70;56.60
42885;DHT22;28534;48.100;11.584;2024-02-23T04:59:24;22.80;56.60
42885;DHT22;28534;48.100;11.584;2024-02-23T05:00:25;22.80;56.50
42885;DHT22;28534;48.100;11.584;2024-02-23T05:01:34;23.80;56.80
42885;DHT22;28534;48.100;11.584;2024-02-23T05:02:35;22.90;56.30
42885;DHT22;28534;48.100;11.584;2024-02-23T05:03:37;22.90;56.20
42885;DHT22;28534;48.100;11.584;2024-02-23T05:04:37;23.00;56.20
42885;DHT22;28534;48.100;11.584;2024-02-23T05:05:39;23.00;56.00
42885;DHT22;28534;48.100;11.584;2024-02-23T05:06:41;23.10;56.00
42885;DHT22;28534;48.100;11.584;2024-02-23T05:07:43;23.10;56.10
42885;DHT22;28534;48.100;11.584;2024-02-23T05:08:44;23.00;56.10
42885;DHT22;28534;48.100;11.584;2024-02-23T05:09:46;23.00;56.20
42885;DHT22;28534;48.100;11.584;2024-02-23T05:10:46;23.00;56.10
42885;DHT22;28534;48.100;11.584;2024-02-23T05:11:47;23.00;56.10
42885;DHT22;28534;48.100;11.584;2024-02-23T05:12:48;23.00;56.00
42885;DHT22;28534;48.100;11.584;2024-02-23T05:13:49;23.00;56.00
42885;DHT22;28534;48.100;11.584;2024-02-23T05:14:51;23.00;56.10
42885;DHT22;28534;48.100;11.584;2024-02-23T05:15:51;23.00;56.20
42885;DHT22;28534;48.100;11.584;2024-02-23T05:16:52;23.10;56.20
42885;DHT22;28534;48.100;11.584;2024-02-23T05:17:53;23.10;56.20
42885;DHT22;28534;48.100;11.584;2024-02-23T05:18:54;23.00;56.10
42885;DHT22;28534;48.100;11.584;2024-02-23T05:19:55;23.10;56.10
42885;DHT22;28534;48.100;11.584;2024-02-23T05:20:56;23.10;55.90
42885;DHT22;28534;48.100;11.584;2024-02-23T05:21:59;23.10;56.20
42885;DHT22;28534;48.100;11.584;2024-02-23T05:23:00;23.10;56.10
42885;DHT22;28534;48.100;11.584;2024-02-23T05:24:01;23.10;56.00
42885;DHT22;28534;48.100;11.584;2024-02-23T05:25:02;23.20;55.90
42885;DHT22;28534;48.100;11.584;2024-02-23T05:26:05;23.10;55.90
42885;DHT22;28534;48.100;11.584;2024-02-23T05:27:05;23.10;55.90
42885;DHT22;28534;48.100;11.584;2024-02-23T05:28:07;23.10;56.00
42885;DHT22;28534;48.100;11.584;2024-02-23T05:29:08;23.20;56.00
42885;DHT22;28534;48.100;11.584;2024-02-23T05:30:08;23.30;56.00
42885;DHT22;28534;48.100;11.584;2024-02-23T05:31:10;23.20;56.00
42885;DHT22;28534;48.100;11.584;2024-02-23T05:32:11;23.20;56.00
42885;DHT22;28534;48.100;11.584;2024-02-23T05:33:13;23.30;56.10
42885;DHT22;28534;48.100;11.584;2024-02-23T05:34:13;23.20;56.00
42885;DHT22;28534;48.100;11.584;2024-02-23T05:35:14;23.20;56.00
42885;DHT22;28534;48.100;11.584;2024-02-23T05:36:16;23.20;56.00
42885;DHT22;28534;48.100;11.584;2024-02-23T05:37:18;23.20;55.90
42885;DHT22;28534;48.100;11.584;2024-02-23T05:38:19;23.20;56.00
42885;DHT22;28534;48.100;11.584;2024-02-23T05:39:20;23.20;56.00
42885;DHT22;28534;48.100;11.584;2024-02-23T05:40:21;23.30;56.10
42885;DHT22;28534;48.100;11.584;2024-02-23T05:41:22;23.40;56.00
42885;DHT22;28534;48.100;11.584;2024-02-23T05:42:23;23.30;55.90
42885;DHT22;28534;48.100;11.584;2024-02-23T05:43:25;23.40;56.00
42885;DHT22;28534;48.100;11.584;2024-02-23T05:44:25;23.40;55.90
42885;DHT22;28534;48.100;11.584;2024-02-23T05:45:27;23.40;55.90
42885;DHT22;28534;48.100;11.584;2024-02-23T05:46:27;23.50;56.00
42885;DHT22;28534;48.100;11.584;2024-02-23T05:47:29;23.50;56.00
42885;DHT22;28534;48.100;11.584;2024-02-23T05:48:29;23.50;55.90
42885;DHT22;28534;48.100;11.584;2024-02-23T05:49:31;23.50;56.00
42885;DHT22;28534;48.100;11.584;2024-02-23T05:50:32;23.50;56.00
42885;DHT22;28534;48.100;11.584;2024-02-23T05:51:33;23.50;56.00
42885;DHT22;28534;48.100;11.584;2024-02-23T05:52:36;23.50;56.10
42885;DHT22;28534;48.100;11.584;2024-02-23T05:53:40;23.50;56.20
42885;DHT22;28534;48.100;11.584;2024-02-23T05:54:41;23.40;56.30
42885;DHT22;28534;48.100;11.584;2024-02-23T05:55:42;23.40;56.50
42885;DHT22;28534;48.100;11.584;2024-02-23T05:56:43;23.40;56.60
42885;DHT22;28534;48.100;11.584;2024-02-23T05:57:45;23.40;56.60
42885;DHT22;28534;48.100;11.584;2024-02-23T05:58:46;23.40;56.80
42885;DHT22;28534;48.100;11.584;2024-02-23T05:59:47;23.40;56.80
42885;DHT22;28534;48.100;11.584;2024-02-23T06:00:48;23.50;56.80
42885;DHT22;28534;48.100;11.584;2024-02-23T06:01:50;23.40;57.10
42885;DHT22;28534;48.100;11.584;2024-02-23T06:02:53;23.40;56.30
42885;DHT22;28534;48.100;11.584;2024-02-23T06:03:54;23.40;56.30
42885;DHT22;28534;48.100;11.584;2024-02-23T06:04:55;23.40;56.30
42885;DHT22;28534;48.100;11.584;2024-02-23T06:05:57;23.40;56.40
42885;DHT22;28534;48.100;11.584;2024-02-23T06:06:58;23.50;56.60
42885;DHT22;28534;48.100;11.584;2024-02-23T06:08:00;23.40;56.80
42885;DHT22;28534;48.100;11.584;2024-02-23T06:09:01;23.40;56.90
42885;DHT22;28534;48.100;11.584;2024-02-23T06:10:04;23.50;57.10
42885;DHT22;28534;48.100;11.584;2024-02-23T06:11:05;23.50;57.20
42885;DHT22;28534;48.100;11.584;2024-02-23T06:12:06;23.50;57.30
42885;DHT22;28534;48.100;11.584;2024-02-23T06:13:08;23.50;57.20
42885;DHT22;28534;48.100;11.584;2024-02-23T06:14:08;23.50;57.20
42885;DHT22;28534;48.100;11.584;2024-02-23T06:15:10;23.60;57.30
42885;DHT22;28534;48.100;11.584;2024-02-23T06:16:11;23.60;57.40
42885;DHT22;28534;48.100;11.584;2024-02-23T06:17:13;23.60;57.60
42885;DHT22;28534;48.100;11.584;2024-02-23T06:18:14;23.70;57.70
42885;DHT22;28534;48.100;11.584;2024-02-23T06:19:16;23.70;57.60
42885;DHT22;28534;48.100;11.584;2024-02-23T06:20:16;23.70;57.80
42885;DHT22;28534;48.100;11.584;2024-02-23T06:21:18;23.70;57.80